Terminal Aerodrome Forecast
Issued by NWS

Home | Current Version | Previous Version | Text Only | Print | Product List | Glossary On
Versions: 1 2 3 4 5 6 7 8 9 10 11 12 13 14 15
000
FTUS46 KPDT 250500
TAFYKM
TAF
KYKM 250525Z 2506/2606 26005KT P6SM BKN025 OVC035
     FM250900 28006KT 6SM BR SCT010 BKN070
     FM251800 VRB05KT P6SM -SHRA SCT050 BKN080
     FM260300 19006KT P6SM VCSH SCT060 BKN100=

USA.gov is the U.S. government's official web portal to all federal, state and local government web resources and services.